Conneaut Harbor, Ohio
Current Conditions -  °F | °C
As of 12:53 PM on Sunday 25 Jan 2015 (Local Time) from KHZY Reporting Station
Overcast Overcast  
Wind Chill: 14°   Ceiling: 3900
Heat Index: 23°   Visibility: 10mi
Dew Point: 14°   Wind: 8mph
Humidity: 68%   Direction: 10°N
Pressure: 29.87"   Gusts: NA
Location:  41.8949°N, 80.5816°W
Report Text: KHZY 251753Z AUTO 01007KT 10SM OVC039 M05/M10 A2987 RMK AO2 SLP125 60000 T10501100 11022 21050 50007
Loading
Personal Weather Stations






























Interactive Weather Map New forecast layout! Learn more

10-Day Weather Forecast

Advertisements
Track Severe Weather on mobile